createdAt,value
2023-05-01T00:00:24.029Z,2.15
2023-05-01T00:03:15.740Z,4.85
2023-05-01T00:06:09.126Z,2.92
2023-05-01T00:08:58.384Z,4.28
2023-05-01T00:11:47.940Z,3.58
2023-05-01T00:14:37.185Z,4.55
2023-05-01T00:17:27.153Z,4.75
2023-05-01T00:20:16.543Z,5.88
2023-05-01T00:23:05.920Z,4.53
2023-05-01T00:25:55.352Z,3.40
2023-05-01T00:28:44.658Z,2.00
2023-05-01T00:31:33.945Z,2.75
2023-05-01T00:34:23.468Z,3.53
2023-05-01T00:37:13.000Z,3.88
2023-05-01T00:40:02.298Z,3.58
2023-05-01T00:42:51.605Z,3.17
2023-05-01T00:45:44.706Z,2.55
2023-05-01T00:48:33.999Z,2.15
2023-05-01T00:51:23.567Z,2.78
2023-05-01T00:54:12.877Z,2.35
2023-05-01T00:57:02.268Z,3.03
2023-05-01T00:59:51.564Z,2.95
2023-05-01T01:02:41.137Z,5.13
2023-05-01T01:05:33.788Z,1.92
2023-05-01T01:11:31.371Z,2.20
2023-05-01T01:14:34.072Z,2.85
2023-05-01T01:20:52.176Z,2.00
2023-05-01T01:24:00.265Z,2.05
2023-05-01T01:27:05.043Z,4.03
2023-05-01T01:30:18.678Z,2.35
2023-05-01T01:33:30.939Z,2.90
2023-05-01T01:36:44.449Z,2.38
2023-05-01T01:39:49.992Z,3.70
2023-05-01T01:43:09.275Z,2.42
2023-05-01T01:46:04.783Z,2.08
2023-05-01T01:48:56.784Z,2.20
2023-05-01T01:51:48.638Z,3.28
2023-05-01T01:54:42.312Z,1.83
2023-05-01T01:57:33.101Z,3.22
2023-05-01T02:00:24.110Z,3.42
2023-05-01T02:03:15.281Z,2.08
2023-05-01T02:06:06.874Z,4.30
2023-05-01T02:08:57.968Z,1.90
2023-05-01T02:11:48.277Z,4.63
2023-05-01T02:14:38.850Z,2.88
2023-05-01T02:17:29.226Z,2.40
2023-05-01T02:20:19.455Z,5.85
2023-05-01T02:23:10.145Z,3.20
2023-05-01T02:26:02.773Z,3.78
2023-05-01T02:28:51.984Z,4.68
2023-05-01T02:31:41.502Z,3.42
2023-05-01T02:34:31.794Z,3.58
2023-05-01T02:37:22.025Z,3.28
2023-05-01T02:40:15.168Z,3.30
2023-05-01T02:43:08.186Z,3.45
2023-05-01T02:45:59.793Z,4.80
2023-05-01T02:48:51.155Z,5.28
2023-05-01T02:51:42.100Z,4.45
2023-05-01T02:54:32.709Z,4.63
2023-05-01T02:57:23.130Z,3.08
2023-05-01T03:00:14.908Z,3.78
2023-05-01T03:03:04.401Z,5.03
2023-05-01T03:05:53.731Z,3.33
2023-05-01T03:08:43.206Z,3.88
2023-05-01T03:11:32.566Z,5.55
2023-05-01T03:14:21.963Z,5.30
2023-05-01T03:17:11.243Z,6.05
2023-05-01T03:20:00.440Z,4.57
2023-05-01T03:22:49.790Z,4.85
2023-05-01T03:25:39.235Z,3.15
2023-05-01T03:28:28.683Z,6.00
2023-05-01T03:31:18.286Z,6.75
2023-05-01T03:34:07.564Z,6.72
2023-05-01T03:36:57.347Z,4.70
2023-05-01T03:39:48.965Z,7.10
2023-05-01T03:43:10.441Z,6.00
2023-05-01T03:46:00.837Z,5.70
2023-05-01T03:48:50.269Z,4.00
2023-05-01T03:51:39.848Z,5.03
2023-05-01T03:54:29.130Z,5.30
2023-05-01T03:57:27.510Z,6.95
2023-05-01T04:00:16.991Z,3.72
2023-05-01T04:03:07.859Z,4.25
2023-05-01T04:05:59.524Z,6.88
2023-05-01T04:08:48.875Z,5.57
2023-05-01T04:11:38.187Z,5.50
2023-05-01T04:14:27.608Z,5.20
2023-05-01T04:17:16.895Z,5.65
2023-05-01T04:20:09.534Z,4.43
2023-05-01T04:22:59.223Z,4.53
2023-05-01T04:25:48.509Z,4.60
2023-05-01T04:28:39.977Z,9.13
2023-05-01T04:31:31.761Z,6.55
2023-05-01T04:34:21.009Z,7.85
2023-05-01T04:37:10.684Z,6.20
2023-05-01T04:39:59.934Z,5.18
2023-05-01T04:42:49.360Z,4.55
2023-05-01T04:45:42.399Z,3.83
2023-05-01T04:51:21.608Z,4.78
2023-05-01T04:54:10.927Z,6.55
2023-05-01T04:57:00.983Z,4.90
2023-05-01T04:59:50.380Z,5.32
2023-05-01T05:02:39.874Z,7.50
2023-05-01T05:05:29.183Z,8.82
2023-05-01T05:08:18.759Z,5.10
2023-05-01T05:11:19.990Z,4.38
2023-05-01T05:14:29.323Z,6.32
2023-05-01T05:17:18.618Z,4.75
2023-05-01T05:20:08.682Z,5.88
2023-05-01T05:22:58.976Z,5.38
2023-05-01T05:25:48.260Z,7.25
2023-05-01T05:28:37.539Z,7.22
2023-05-01T05:31:29.100Z,5.88
2023-05-01T05:34:18.618Z,5.45
2023-05-01T05:37:07.853Z,5.60
2023-05-01T05:40:05.051Z,7.25
2023-05-01T05:43:01.517Z,6.38
2023-05-01T05:45:52.640Z,6.90
2023-05-01T05:48:42.540Z,5.72
2023-05-01T05:51:32.915Z,6.88
2023-05-01T05:54:22.942Z,6.72
2023-05-01T05:57:12.973Z,7.32
2023-05-01T06:00:06.705Z,4.90
2023-05-01T06:03:01.268Z,7.93
2023-05-01T06:05:52.555Z,6.43
2023-05-01T06:08:41.906Z,4.75
2023-05-01T06:11:33.709Z,4.57
2023-05-01T06:14:22.981Z,5.32
2023-05-01T06:17:12.723Z,5.68
2023-05-01T06:20:02.956Z,4.80
2023-05-01T06:22:52.762Z,8.90
2023-05-01T06:25:51.101Z,4.93
2023-05-01T06:28:40.361Z,5.32
2023-05-01T06:31:30.191Z,5.50
2023-05-01T06:34:19.766Z,5.28
2023-05-01T06:37:16.332Z,6.93
2023-05-01T06:40:09.742Z,6.35
2023-05-01T06:43:00.120Z,4.43
2023-05-01T06:45:51.079Z,5.75
2023-05-01T06:48:40.404Z,5.00
2023-05-01T06:51:31.389Z,5.68
2023-05-01T06:54:20.774Z,4.63
2023-05-01T06:57:10.405Z,5.35
2023-05-01T06:59:59.727Z,5.95
2023-05-01T07:02:49.227Z,5.40
2023-05-01T07:05:38.624Z,5.32
2023-05-01T07:08:29.186Z,3.70
2023-05-01T07:11:18.456Z,5.55
2023-05-01T07:14:07.652Z,4.32
2023-05-01T07:16:56.946Z,9.45
2023-05-01T07:19:46.212Z,7.70
2023-05-01T07:22:35.523Z,5.40
2023-05-01T07:25:26.121Z,5.43
2023-05-01T07:28:15.910Z,5.10
2023-05-01T07:31:05.480Z,3.85
2023-05-01T07:33:54.777Z,4.47
2023-05-01T07:36:44.008Z,4.90
2023-05-01T07:39:33.298Z,5.90
2023-05-01T07:42:22.500Z,5.57
2023-05-01T07:45:12.490Z,6.18
2023-05-01T07:48:01.735Z,4.28
2023-05-01T07:50:53.433Z,5.40
2023-05-01T07:53:43.423Z,6.55
2023-05-01T07:56:33.189Z,5.15
2023-05-01T07:59:22.370Z,6.38
2023-05-01T08:02:11.652Z,6.88
2023-05-01T08:05:01.219Z,3.88
2023-05-01T08:07:50.667Z,4.80
2023-05-01T08:10:40.207Z,6.25
2023-05-01T08:13:29.546Z,5.38
2023-05-01T08:16:21.195Z,5.65
2023-05-01T08:19:11.374Z,3.53
2023-05-01T08:22:00.622Z,4.88
2023-05-01T08:24:49.909Z,4.93
2023-05-01T08:27:39.338Z,5.38
2023-05-01T08:30:29.101Z,3.47
2023-05-01T08:33:18.472Z,4.20
2023-05-01T08:36:07.965Z,4.47
2023-05-01T08:38:57.135Z,3.78
2023-05-01T08:41:51.179Z,4.43
2023-05-01T08:44:40.913Z,4.78
2023-05-01T08:47:31.527Z,4.13
2023-05-01T08:50:21.135Z,5.57
2023-05-01T08:53:13.404Z,4.28
2023-05-01T08:56:07.311Z,5.55
2023-05-01T08:58:58.810Z,6.43
2023-05-01T09:01:48.430Z,4.65
2023-05-01T09:04:42.088Z,5.03
2023-05-01T09:07:31.536Z,4.45
2023-05-01T09:10:21.018Z,4.72
2023-05-01T09:13:11.030Z,4.30
2023-05-01T09:16:01.842Z,7.28
2023-05-01T09:18:51.855Z,5.07
2023-05-01T09:21:42.752Z,5.82
2023-05-01T09:24:32.073Z,3.88
2023-05-01T09:27:21.543Z,5.28
2023-05-01T09:30:11.238Z,4.72
2023-05-01T09:33:08.294Z,5.70
2023-05-01T09:36:00.015Z,5.03
2023-05-01T09:38:49.397Z,4.45
2023-05-01T09:41:53.591Z,4.00
2023-05-01T09:44:46.319Z,4.65
2023-05-01T09:47:36.223Z,4.22
2023-05-01T09:50:34.815Z,5.95
2023-05-01T09:53:39.639Z,5.18
2023-05-01T09:56:34.425Z,4.72
2023-05-01T09:59:23.741Z,5.50
2023-05-01T10:02:33.529Z,3.50
2023-05-01T10:05:23.966Z,4.60
2023-05-01T10:08:16.068Z,4.72
2023-05-01T10:11:09.295Z,4.65
2023-05-01T10:14:09.902Z,4.72
2023-05-01T10:16:59.270Z,4.15
2023-05-01T10:19:49.804Z,6.72
2023-05-01T10:22:39.356Z,4.70
2023-05-01T10:25:30.438Z,5.13
2023-05-01T10:28:21.731Z,3.25
2023-05-01T10:31:13.263Z,5.80
2023-05-01T10:34:03.066Z,3.92
2023-05-01T10:37:02.145Z,5.95
2023-05-01T10:39:51.644Z,4.28
2023-05-01T10:43:19.729Z,4.28
2023-05-01T10:46:12.249Z,4.80
2023-05-01T10:49:01.721Z,3.63
2023-05-01T10:52:01.974Z,4.30
2023-05-01T10:54:51.279Z,4.95
2023-05-01T10:57:47.384Z,5.05
2023-05-01T11:00:36.677Z,3.72
2023-05-01T11:03:25.826Z,6.20
2023-05-01T11:06:15.297Z,4.88
2023-05-01T11:09:43.281Z,4.50
2023-05-01T11:12:47.975Z,3.10
2023-05-01T11:15:37.643Z,4.65
2023-05-01T11:18:47.336Z,4.65
2023-05-01T11:21:38.366Z,5.35
2023-05-01T11:24:36.581Z,6.30
2023-05-01T11:27:26.296Z,5.65
2023-05-01T11:30:15.546Z,3.92
2023-05-01T11:33:05.677Z,5.75
2023-05-01T11:36:01.303Z,4.55
2023-05-01T11:38:54.763Z,4.85
2023-05-01T11:41:44.136Z,5.78
2023-05-01T11:44:33.433Z,4.45
2023-05-01T11:47:22.931Z,5.30
2023-05-01T11:50:12.721Z,3.85
2023-05-01T11:53:02.176Z,6.13
2023-05-01T11:55:52.500Z,4.63
2023-05-01T11:58:42.439Z,3.53
2023-05-01T12:01:36.442Z,4.05
2023-05-01T12:04:32.288Z,5.80
2023-05-01T12:07:25.865Z,5.85
2023-05-01T12:10:15.141Z,4.45
2023-05-01T12:13:06.089Z,5.60
2023-05-01T12:15:57.418Z,6.13
2023-05-01T12:18:46.963Z,5.75
2023-05-01T12:21:37.833Z,2.85
2023-05-01T12:24:27.133Z,3.75
2023-05-01T12:27:16.861Z,5.22
2023-05-01T12:30:06.547Z,5.10
2023-05-01T12:32:56.602Z,6.15
2023-05-01T12:35:51.626Z,4.15
2023-05-01T12:38:40.980Z,7.43
2023-05-01T12:41:50.446Z,4.28
2023-05-01T12:44:40.219Z,3.88
2023-05-01T12:47:38.814Z,3.38
2023-05-01T12:50:28.261Z,3.42
2023-05-01T12:53:17.543Z,3.38
2023-05-01T12:56:07.734Z,4.10
2023-05-01T12:58:58.847Z,3.75
2023-05-01T13:01:48.275Z,3.97
2023-05-01T13:04:37.590Z,4.68
2023-05-01T13:07:26.873Z,6.20
2023-05-01T13:10:20.329Z,3.80
2023-05-01T13:13:09.642Z,4.03
2023-05-01T13:16:13.361Z,4.25
2023-05-01T13:19:02.931Z,2.80
2023-05-01T13:21:53.284Z,4.97
2023-05-01T13:24:47.335Z,5.47
2023-05-01T13:27:36.625Z,3.60
2023-05-01T13:30:35.988Z,4.78
2023-05-01T13:33:25.303Z,5.50
2023-05-01T13:36:25.429Z,4.25
2023-05-01T13:39:21.816Z,5.30
2023-05-01T13:42:14.158Z,5.88
2023-05-01T13:45:07.403Z,4.13
2023-05-01T13:47:56.804Z,2.67
2023-05-01T13:50:46.095Z,5.30
2023-05-01T13:53:36.191Z,4.00
2023-05-01T13:56:25.518Z,3.83
2023-05-01T13:59:14.906Z,3.63
2023-05-01T14:02:14.637Z,4.15
2023-05-01T14:05:04.125Z,3.70
2023-05-01T14:07:56.620Z,3.40
2023-05-01T14:10:46.025Z,3.40
2023-05-01T14:13:37.437Z,5.90
2023-05-01T14:16:28.787Z,3.47
2023-05-01T14:19:19.387Z,4.38
2023-05-01T14:22:12.107Z,3.05
2023-05-01T14:25:01.867Z,2.88
2023-05-01T14:27:51.940Z,2.88
2023-05-01T14:30:42.531Z,3.03
2023-05-01T14:33:32.454Z,4.13
2023-05-01T14:36:22.106Z,4.57
2023-05-01T14:39:11.578Z,4.90
2023-05-01T14:42:01.725Z,5.00
2023-05-01T14:44:51.115Z,3.80
2023-05-01T14:47:42.464Z,2.65
2023-05-01T14:50:32.480Z,2.53
2023-05-01T14:53:22.223Z,2.40
2023-05-01T14:56:11.720Z,3.13
2023-05-01T14:59:01.982Z,2.88
2023-05-01T15:01:51.499Z,2.80
2023-05-01T15:04:40.963Z,2.22
2023-05-01T15:07:30.339Z,3.78
2023-05-01T15:10:19.763Z,5.95
2023-05-01T15:13:10.484Z,3.70
2023-05-01T15:16:00.021Z,6.10
2023-05-01T15:18:49.542Z,3.78
2023-05-01T15:21:38.941Z,3.15
2023-05-01T15:24:28.287Z,6.13
2023-05-01T15:27:18.876Z,3.30
2023-05-01T15:30:09.885Z,3.63
2023-05-01T15:32:59.310Z,4.63
2023-05-01T15:35:49.872Z,4.15
2023-05-01T15:38:39.268Z,4.93
2023-05-01T15:41:28.662Z,2.35
2023-05-01T15:44:17.968Z,4.60
2023-05-01T15:47:07.478Z,4.43
2023-05-01T15:49:57.384Z,3.58
2023-05-01T15:52:48.337Z,2.20
2023-05-01T15:55:37.778Z,5.18
2023-05-01T15:58:27.083Z,3.22
2023-05-01T16:01:17.456Z,4.15
2023-05-01T16:04:07.190Z,3.92
2023-05-01T16:06:56.558Z,3.58
2023-05-01T16:09:46.015Z,2.33
2023-05-01T16:12:35.595Z,3.63
2023-05-01T16:15:25.416Z,2.80
2023-05-01T16:18:21.863Z,4.20
2023-05-01T16:21:12.517Z,5.25
2023-05-01T16:24:03.596Z,3.25
2023-05-01T16:26:53.006Z,2.97
2023-05-01T16:29:42.335Z,2.63
2023-05-01T16:32:31.967Z,2.30
2023-05-01T16:35:28.363Z,4.45
2023-05-01T16:38:19.097Z,2.35
2023-05-01T16:41:09.266Z,2.42
2023-05-01T16:44:01.429Z,4.30
2023-05-01T16:46:59.591Z,2.90
2023-05-01T16:49:49.012Z,4.13
2023-05-01T16:52:40.112Z,3.00
2023-05-01T16:55:29.460Z,2.50
2023-05-01T16:58:18.813Z,4.40
2023-05-01T17:01:08.377Z,2.47
2023-05-01T17:03:57.780Z,3.30
2023-05-01T17:06:47.291Z,2.55
2023-05-01T17:09:36.636Z,2.25
2023-05-01T17:12:26.294Z,4.55
2023-05-01T17:15:15.742Z,3.15
2023-05-01T17:18:06.792Z,4.97
2023-05-01T17:20:56.249Z,2.38
2023-05-01T17:23:45.714Z,3.53
2023-05-01T17:26:35.013Z,4.57
2023-05-01T17:29:25.015Z,2.05
2023-05-01T17:32:18.160Z,2.78
2023-05-01T17:35:19.234Z,2.25
2023-05-01T17:38:08.852Z,2.45
2023-05-01T17:40:58.406Z,3.65
2023-05-01T17:43:47.900Z,3.22
2023-05-01T17:46:39.933Z,3.47
2023-05-01T17:49:29.201Z,3.10
2023-05-01T17:52:18.554Z,3.97
2023-05-01T17:55:08.532Z,3.38
2023-05-01T17:57:57.839Z,3.92
2023-05-01T18:00:47.572Z,2.58
2023-05-01T18:03:37.071Z,2.10
2023-05-01T18:06:26.609Z,2.55
2023-05-01T18:09:15.951Z,2.20
2023-05-01T18:12:05.390Z,2.38
2023-05-01T18:14:55.237Z,2.20
2023-05-01T18:17:44.618Z,2.42
2023-05-01T18:20:34.097Z,2.10
2023-05-01T18:23:23.600Z,2.40
2023-05-01T18:26:13.014Z,2.42
2023-05-01T18:29:03.494Z,3.47
2023-05-01T18:31:52.968Z,2.10
2023-05-01T18:34:43.046Z,4.13
2023-05-01T18:37:33.018Z,2.75
2023-05-01T18:40:22.439Z,2.60
2023-05-01T18:43:12.046Z,2.45
2023-05-01T18:46:01.424Z,1.92
2023-05-01T18:48:50.753Z,2.35
2023-05-01T18:51:40.023Z,2.38
2023-05-01T18:54:29.475Z,2.97
2023-05-01T18:57:18.759Z,2.40
2023-05-01T19:00:09.353Z,2.42
2023-05-01T19:02:58.728Z,2.55
2023-05-01T19:05:48.672Z,2.10
2023-05-01T19:08:38.551Z,3.42
2023-05-01T19:11:32.681Z,2.45
2023-05-01T19:14:22.729Z,2.33
2023-05-01T19:17:12.235Z,2.50
2023-05-01T19:20:02.171Z,2.45
2023-05-01T19:22:51.816Z,3.10
2023-05-01T19:25:41.138Z,2.20
2023-05-01T19:28:30.764Z,2.35
2023-05-01T19:31:20.847Z,2.50
2023-05-01T19:34:10.191Z,2.47
2023-05-01T19:37:01.214Z,2.22
2023-05-01T19:39:51.795Z,2.05
2023-05-01T19:42:43.254Z,2.45
2023-05-01T19:45:32.748Z,4.53
2023-05-01T19:48:22.937Z,2.63
2023-05-01T19:51:13.038Z,2.20
2023-05-01T19:54:02.563Z,2.28
2023-05-01T19:56:53.387Z,3.17
2023-05-01T19:59:43.746Z,3.25
2023-05-01T20:02:33.155Z,1.80
2023-05-01T20:05:28.911Z,2.22
2023-05-01T20:08:18.272Z,2.25
2023-05-01T20:11:08.456Z,2.15
2023-05-01T20:13:57.967Z,2.22
2023-05-01T20:16:47.243Z,1.92
2023-05-01T20:19:39.801Z,2.65
2023-05-01T20:22:29.282Z,2.20
2023-05-01T20:25:18.697Z,2.00
2023-05-01T20:28:09.947Z,2.70
2023-05-01T20:30:59.349Z,2.40
2023-05-01T20:33:48.676Z,1.80
2023-05-01T20:36:38.802Z,3.15
2023-05-01T20:39:28.060Z,2.38
2023-05-01T20:42:17.386Z,2.00
2023-05-01T20:45:07.599Z,2.35
2023-05-01T20:47:57.645Z,2.83
2023-05-01T20:50:48.577Z,2.50
2023-05-01T20:53:37.788Z,2.30
2023-05-01T20:56:27.028Z,2.38
2023-05-01T20:59:18.530Z,2.88
2023-05-01T21:02:08.829Z,2.22
2023-05-01T21:04:58.246Z,2.55
2023-05-01T21:07:47.615Z,2.22
2023-05-01T21:10:37.929Z,1.88
2023-05-01T21:13:28.535Z,2.00
2023-05-01T21:16:20.733Z,2.00
2023-05-01T21:19:12.538Z,2.03
2023-05-01T21:22:02.029Z,2.15
2023-05-01T21:24:54.113Z,2.30
2023-05-01T21:27:43.659Z,2.20
2023-05-01T21:30:34.599Z,2.05
2023-05-01T21:33:24.002Z,2.05
2023-05-01T21:36:15.235Z,2.10
2023-05-01T21:39:04.870Z,2.38
2023-05-01T21:41:54.442Z,2.20
2023-05-01T21:44:43.922Z,2.13
2023-05-01T21:47:40.017Z,2.10
2023-05-01T21:50:33.748Z,2.03
2023-05-01T21:53:23.072Z,1.90
2023-05-01T21:56:13.614Z,2.80
2023-05-01T21:59:06.344Z,2.10
2023-05-01T22:01:55.634Z,2.10
2023-05-01T22:04:45.306Z,2.13
2023-05-01T22:07:35.299Z,1.95
2023-05-01T22:10:24.517Z,2.35
2023-05-01T22:13:14.731Z,2.42
2023-05-01T22:16:04.864Z,2.03
2023-05-01T22:18:54.349Z,1.90
2023-05-01T22:21:44.031Z,2.67
2023-05-01T22:24:33.405Z,1.98
2023-05-01T22:27:23.324Z,2.00
2023-05-01T22:30:13.227Z,1.98
2023-05-01T22:33:02.671Z,2.40
2023-05-01T22:35:51.900Z,2.20
2023-05-01T22:38:41.122Z,1.90
2023-05-01T22:41:30.419Z,2.13
2023-05-01T22:44:22.302Z,1.90
2023-05-01T22:47:11.789Z,2.10
2023-05-01T22:50:01.489Z,2.17
2023-05-01T22:52:51.220Z,2.95
2023-05-01T22:55:40.498Z,1.90
2023-05-01T22:58:29.772Z,3.00
2023-05-01T23:01:19.106Z,2.03
2023-05-01T23:04:08.521Z,2.10
2023-05-01T23:06:58.400Z,1.70
2023-05-01T23:09:48.444Z,2.08
2023-05-01T23:12:44.010Z,1.65
2023-05-01T23:15:33.904Z,1.83
2023-05-01T23:18:32.966Z,1.90
2023-05-01T23:21:22.369Z,1.80
2023-05-01T23:24:14.362Z,1.95
2023-05-01T23:27:03.689Z,2.00
2023-05-01T23:29:58.830Z,2.38
2023-05-01T23:32:48.670Z,2.00
2023-05-01T23:35:38.080Z,2.22
2023-05-01T23:38:27.513Z,1.90
2023-05-01T23:41:17.403Z,1.90
2023-05-01T23:44:06.958Z,2.53
2023-05-01T23:46:56.380Z,2.13
2023-05-01T23:49:45.942Z,2.00
2023-05-01T23:52:35.383Z,1.90
2023-05-01T23:55:24.664Z,1.90
2023-05-01T23:58:14.724Z,1.70
